Thursday, July 19, 2018, 1:54 AM EDT
Back to Local

KCXY, Harrisburg Capital City

Location: New Cumberland, PA, United States Lat: 40.217
Local Time: 1:54 AM EDT ( 5:54 GMT) Lon: -76.85
Time Zone: US/Eastern Elev: 347 ft

Show me the last for .
Show Coded

Time T Td Feel RH Dir Speed Gust Alt SLP Vis Weather Sky Remarks
2018-07-19 00:56 67 60 - 78 - Calm - 30.04 30.03 10 CLR 24-hr Min Temp (1am): 66.0°F
24-hr Max Temp (1am): 87.1°F
2018-07-18 23:56 69 59 - 70 250° 3 - 30.01 30.01 10 CLR None
2018-07-18 22:56 69 59 - 70 230° 5 - 30.00 30.00 10 CLR None
2018-07-18 21:56 71 60 76 68 230° 3 - 29.99 29.99 10 SCT070 None
2018-07-18 20:56 75 58 78 55 220° 3 - 29.97 29.96 10 FEW070 None
2018-07-18 19:56 83 54 - 37 360° 5 - 29.96 29.95 10 CLR 6-hr Min Temp (8pm): 82.9°F
6-hr Max Temp (8pm): 87.1°F
2018-07-18 18:56 85 54 - 34 340° 7 - 29.96 29.95 10 SCT065 None
2018-07-18 17:56 85 53 - 33 310° 8 - 29.95 29.94 10 FEW065 None
2018-07-18 16:56 86 53 - 32 310° 7 - 29.95 29.94 10 SCT070 None
2018-07-18 15:56 86 53 - 32 360° 8 - 29.96 29.95 10 SCT075 None
2018-07-18 14:56 86 54 - 33 340° 10 - 29.97 29.96 10 SCT075 None
2018-07-18 13:56 85 57 - 38 340° 8 - 29.97 29.96 10 FEW049 SCT060 6-hr Min Temp (2pm): 73.9°F
6-hr Max Temp (2pm): 84.9°F
2018-07-18 12:56 80 58 81 46 330° 10 - 29.98 29.97 10 BKN046 BKN055 None
2018-07-18 11:56 79 59 80 50 300° 12 - 29.98 29.98 10 FEW050 None
2018-07-18 10:56 79 59 80 50 320° 9 - 29.98 29.98 10 CLR None
2018-07-18 09:56 76 58 78 53 330° 9 - 29.98 29.97 10 CLR None
2018-07-18 08:56 75 57 77 53 350° 7 - 29.98 29.97 10 CLR None
2018-07-18 07:56 74 56 77 53 330° 7 - 29.96 29.96 10 CLR 24-hr Precip Total (8am): 0.63"
6-hr Min Temp (8am): 66.0°F
6-hr Max Temp (8am): 73.9°F
2018-07-18 06:56 73 56 77 55 350° 8 - 29.95 29.94 10 CLR None
2018-07-18 05:56 67 59 - 75 250° 6 - 29.93 29.92 10 CLR None
2018-07-18 04:56 67 59 - 75 240° 5 - 29.92 29.91 10 FEW075 None
2018-07-18 03:56 68 61 - 78 250° 6 - 29.91 29.90 10 CLR None
2018-07-18 02:56 70 61 - 73 270° 5 - 29.90 29.89 10 CLR None
2018-07-18 01:56 73 65 77 75 250° 6 - 29.89 29.89 10 OVC070 6-hr Min Temp (2am): 72.0°F
6-hr Max Temp (2am): 82.0°F

Support USWX by starting your Amazon purchase here.